Time;durP1;ratioP1;P1;durP2;ratioP2;P2;SDS_P1;SDS_P2;PMS_P1;PMS_P2;Temp;Humidity;BMP_temperature;BMP_pressure;BME280_temperature;BME280_humidity;BME280_pressure;Samples;Min_cycle;Max_cycle;Signal;HPM_P1;HPM_P2
2021/09/18 00:00:49;;;;;;;27.50;25.50;;;12.60;91.90;;;;;;5054464;28;20504;-68
2021/09/18 00:03:16;;;;;;;27.33;25.57;;;12.60;91.60;;;;;;5053253;28;20476;-69
2021/09/18 00:05:43;;;;;;;27.83;25.90;;;12.60;91.50;;;;;;5050807;28;20493;-68
2021/09/18 00:08:10;;;;;;;28.53;26.50;;;12.60;91.30;;;;;;5054867;28;20483;-68
2021/09/18 00:10:36;;;;;;;28.23;26.37;;;12.50;91.40;;;;;;5053043;28;20945;-68
2021/09/18 00:13:05;;;;;;;27.80;26.00;;;12.50;92.00;;;;;;5056536;28;20940;-68
2021/09/18 00:15:32;;;;;;;27.77;25.97;;;12.50;91.90;;;;;;5061037;28;20454;-68
2021/09/18 00:18:00;;;;;;;28.27;26.47;;;12.50;91.80;;;;;;5051067;28;20486;-68
2021/09/18 00:20:27;;;;;;;27.70;26.00;;;12.50;91.50;;;;;;5050740;28;20602;-68
2021/09/18 00:22:53;;;;;;;29.00;27.30;;;12.50;91.60;;;;;;5049007;28;20466;-68
2021/09/18 00:25:20;;;;;;;30.27;27.70;;;12.50;92.10;;;;;;5049662;28;20726;-68
2021/09/18 00:27:47;;;;;;;28.57;26.80;;;12.50;92.00;;;;;;5052098;28;20456;-68
2021/09/18 00:30:15;;;;;;;28.93;27.23;;;12.50;92.20;;;;;;5050704;28;20479;-68
2021/09/18 00:32:43;;;;;;;28.17;26.37;;;12.50;92.00;;;;;;5050070;28;20968;-68
2021/09/18 00:35:10;;;;;;;29.47;27.67;;;12.50;91.80;;;;;;5049090;28;20457;-68
2021/09/18 00:37:37;;;;;;;27.27;25.40;;;12.50;92.00;;;;;;5054987;28;20845;-68
2021/09/18 00:40:06;;;;;;;29.43;27.00;;;12.50;91.90;;;;;;5052210;28;20504;-68
2021/09/18 00:42:34;;;;;;;26.90;25.20;;;12.50;91.90;;;;;;5049336;28;20976;-68
2021/09/18 00:45:01;;;;;;;26.87;25.27;;;12.50;91.80;;;;;;5049221;28;20453;-68
2021/09/18 00:47:29;;;;;;;28.70;26.53;;;12.50;91.90;;;;;;5048607;28;20486;-68
2021/09/18 00:49:56;;;;;;;27.27;25.40;;;12.50;92.00;;;;;;5056882;28;20553;-68
2021/09/18 00:52:23;;;;;;;28.00;26.10;;;12.50;91.90;;;;;;5056457;28;20459;-68
2021/09/18 00:54:51;;;;;;;27.67;25.87;;;12.50;91.80;;;;;;5046992;28;20568;-68
2021/09/18 00:57:18;;;;;;;29.07;27.13;;;12.50;91.90;;;;;;5054847;28;20479;-68
2021/09/18 00:59:45;;;;;;;28.10;26.30;;;12.50;92.00;;;;;;5055741;28;20543;-68
2021/09/18 01:02:13;;;;;;;27.43;25.77;;;12.50;92.20;;;;;;5058751;28;20466;-68
2021/09/18 01:04:43;;;;;;;28.37;26.60;;;12.50;92.30;;;;;;5055996;28;20465;-68
2021/09/18 01:07:10;;;;;;;28.63;26.83;;;12.50;92.30;;;;;;5058648;28;20454;-68
2021/09/18 01:09:37;;;;;;;27.53;25.83;;;12.50;92.20;;;;;;5052100;28;20479;-68
2021/09/18 01:12:05;;;;;;;27.57;25.73;;;12.40;92.40;;;;;;5048697;28;20465;-68
2021/09/18 01:14:32;;;;;;;27.70;26.00;;;12.40;92.60;;;;;;5052420;28;21149;-68
2021/09/18 01:17:00;;;;;;;27.83;25.97;;;12.40;92.60;;;;;;5059873;28;20464;-68
2021/09/18 01:19:26;;;;;;;28.50;26.40;;;12.40;92.50;;;;;;5050243;28;20479;-68
2021/09/18 01:21:56;;;;;;;28.07;25.87;;;12.30;92.60;;;;;;5050601;28;20451;-68
2021/09/18 01:24:24;;;;;;;28.40;26.47;;;12.40;92.60;;;;;;5049157;28;20468;-68
2021/09/18 01:26:51;;;;;;;28.00;26.20;;;12.40;92.60;;;;;;5049628;28;20546;-68
2021/09/18 01:29:18;;;;;;;28.50;26.60;;;12.40;92.60;;;;;;5054514;28;20481;-68
2021/09/18 01:31:46;;;;;;;27.80;25.87;;;12.30;92.60;;;;;;5062483;28;20461;-68
2021/09/18 01:34:18;;;;;;;27.93;26.23;;;12.30;92.60;;;;;;5056852;28;20465;-68
2021/09/18 01:36:45;;;;;;;27.10;25.40;;;12.30;92.70;;;;;;5047726;28;20478;-68
2021/09/18 01:39:13;;;;;;;26.37;24.67;;;12.30;92.20;;;;;;5052027;28;20479;-68
2021/09/18 01:41:43;;;;;;;28.37;26.10;;;12.30;92.30;;;;;;5059150;28;20501;-68
2021/09/18 01:44:11;;;;;;;27.13;25.40;;;12.20;92.10;;;;;;5051052;28;20467;-68
2021/09/18 01:46:38;;;;;;;27.13;25.40;;;12.20;91.60;;;;;;5053985;28;20455;-68
2021/09/18 01:49:05;;;;;;;27.77;25.97;;;12.20;91.70;;;;;;5053179;28;20471;-68
2021/09/18 01:51:37;;;;;;;27.13;25.43;;;12.10;92.00;;;;;;5049455;28;20806;-68
2021/09/18 01:54:04;;;;;;;28.77;26.63;;;12.10;92.10;;;;;;5048425;28;20459;-68
2021/09/18 01:56:30;;;;;;;26.20;24.60;;;12.10;92.10;;;;;;5049693;28;20463;-68
2021/09/18 01:58:59;;;;;;;26.13;24.53;;;12.00;92.20;;;;;;5054015;28;20482;-68
2021/09/18 02:01:25;;;;;;;27.10;25.47;;;12.00;92.40;;;;;;5058855;28;20468;-68
2021/09/18 02:03:52;;;;;;;27.33;25.53;;;12.00;92.40;;;;;;5048599;28;20474;-68
2021/09/18 02:06:19;;;;;;;28.20;26.10;;;12.10;92.40;;;;;;5049519;28;20459;-68
2021/09/18 02:08:46;;;;;;;27.07;25.37;;;12.10;92.40;;;;;;5055131;28;21189;-68
2021/09/18 02:11:13;;;;;;;28.27;26.27;;;12.00;92.60;;;;;;5054445;28;20922;-68
2021/09/18 02:13:39;;;;;;;26.60;24.90;;;12.00;92.60;;;;;;5048022;28;20465;-68
2021/09/18 02:16:08;;;;;;;28.03;26.33;;;12.00;92.80;;;;;;5047872;28;20463;-68
2021/09/18 02:18:34;;;;;;;27.33;25.33;;;12.10;92.80;;;;;;5048370;28;21008;-68
2021/09/18 02:21:01;;;;;;;28.63;26.83;;;12.10;92.60;;;;;;5050545;28;20470;-68
2021/09/18 02:23:28;;;;;;;30.80;28.60;;;12.10;92.50;;;;;;5057043;28;20546;-68
2021/09/18 02:25:55;;;;;;;27.67;25.87;;;12.10;92.60;;;;;;5053887;28;20477;-68
2021/09/18 02:28:23;;;;;;;28.27;26.37;;;12.10;92.50;;;;;;5054256;28;20451;-68
2021/09/18 02:30:49;;;;;;;27.70;25.80;;;12.00;92.50;;;;;;5047930;28;20485;-68
2021/09/18 02:33:18;;;;;;;28.67;26.57;;;12.00;92.50;;;;;;5056440;28;20459;-68
2021/09/18 02:35:45;;;;;;;28.07;26.27;;;12.00;92.60;;;;;;5059891;28;20945;-68
2021/09/18 02:38:12;;;;;;;27.30;25.50;;;12.00;92.50;;;;;;5054305;28;20484;-68
2021/09/18 02:40:40;;;;;;;26.83;25.03;;;12.00;92.50;;;;;;5058883;28;20490;-68
2021/09/18 02:43:07;;;;;;;27.60;25.80;;;12.00;92.60;;;;;;5053616;28;20466;-68
2021/09/18 02:45:35;;;;;;;27.30;25.50;;;12.10;92.40;;;;;;5054879;28;20459;-69
2021/09/18 02:48:01;;;;;;;27.00;25.27;;;12.10;92.10;;;;;;5051605;28;20465;-68
2021/09/18 02:50:30;;;;;;;26.97;25.17;;;12.00;92.20;;;;;;5060232;28;20478;-69
2021/09/18 02:52:56;;;;;;;27.60;25.57;;;12.00;92.10;;;;;;5060993;28;20944;-69
2021/09/18 02:55:23;;;;;;;26.60;25.00;;;11.90;92.00;;;;;;5051895;28;20458;-69
2021/09/18 02:57:50;;;;;;;27.13;25.23;;;11.90;92.10;;;;;;5051934;28;20474;-68
2021/09/18 03:00:18;;;;;;;27.87;26.07;;;11.90;92.30;;;;;;5057898;28;20905;-69
2021/09/18 03:02:45;;;;;;;28.47;26.50;;;11.90;92.40;;;;;;5051177;28;20549;-68
2021/09/18 03:05:12;;;;;;;29.27;27.23;;;11.80;92.60;;;;;;5052466;28;20542;-68
2021/09/18 03:07:41;;;;;;;28.10;26.20;;;11.90;92.70;;;;;;5062542;28;20461;-68
2021/09/18 03:10:10;;;;;;;27.97;25.87;;;11.90;92.80;;;;;;5059228;28;20481;-68
2021/09/18 03:12:37;;;;;;;28.10;26.30;;;11.80;93.20;;;;;;5051919;28;20516;-68
2021/09/18 03:15:06;;;;;;;29.63;27.13;;;11.90;93.00;;;;;;5056477;28;20454;-68
2021/09/18 03:17:33;;;;;;;29.33;27.40;;;11.90;93.00;;;;;;5064277;28;20554;-68
2021/09/18 03:20:00;;;;;;;27.80;25.93;;;12.00;93.00;;;;;;5062335;28;20479;-68
2021/09/18 03:22:27;;;;;;;28.50;26.50;;;12.00;92.80;;;;;;5057539;28;20463;-68
2021/09/18 03:24:55;;;;;;;28.90;26.80;;;12.00;92.70;;;;;;5050243;28;20487;-68
2021/09/18 03:27:22;;;;;;;27.30;25.50;;;12.00;92.60;;;;;;5051305;28;20451;-68
2021/09/18 03:29:49;;;;;;;28.20;26.40;;;12.00;92.50;;;;;;5051009;28;20470;-68
2021/09/18 03:32:15;;;;;;;28.23;26.33;;;12.00;92.40;;;;;;5050925;28;20458;-68
2021/09/18 03:34:42;;;;;;;28.40;26.30;;;11.90;92.70;;;;;;5052042;28;20471;-68
2021/09/18 03:37:09;;;;;;;30.10;28.13;;;11.90;92.70;;;;;;5060901;28;20456;-68
2021/09/18 03:39:36;;;;;;;28.30;26.50;;;11.90;92.50;;;;;;5057760;28;20479;-68
2021/09/18 03:42:05;;;;;;;27.70;25.93;;;11.90;92.50;;;;;;5050619;28;20462;-68
2021/09/18 03:44:32;;;;;;;28.33;26.43;;;11.90;92.60;;;;;;5053494;28;20466;-68
2021/09/18 03:46:58;;;;;;;28.93;26.70;;;11.90;92.80;;;;;;5050173;28;20554;-68
2021/09/18 03:49:25;;;;;;;29.03;27.03;;;11.90;92.60;;;;;;5060988;28;20474;-69
2021/09/18 03:51:52;;;;;;;28.57;26.47;;;11.80;92.70;;;;;;5061285;28;20461;-69
2021/09/18 03:54:19;;;;;;;30.07;27.43;;;11.80;93.00;;;;;;5067976;28;20458;-69
2021/09/18 03:56:46;;;;;;;28.37;26.47;;;11.80;93.10;;;;;;5060380;28;20837;-68
2021/09/18 03:59:14;;;;;;;28.90;26.90;;;11.80;93.10;;;;;;5055611;28;20479;-68
2021/09/18 04:01:41;;;;;;;32.27;29.83;;;11.80;93.20;;;;;;5053536;28;20791;-68
2021/09/18 04:04:08;;;;;;;28.50;26.43;;;11.70;92.70;;;;;;5062075;28;20468;-68
2021/09/18 04:06:35;;;;;;;27.90;26.10;;;11.70;92.50;;;;;;5058448;28;20462;-68
2021/09/18 04:09:02;;;;;;;28.83;26.83;;;11.70;92.20;;;;;;5049423;28;20471;-68
2021/09/18 04:11:29;;;;;;;27.77;25.97;;;11.70;92.40;;;;;;5057341;28;20873;-68
2021/09/18 04:13:56;;;;;;;31.10;29.00;;;11.70;92.50;;;;;;5057024;28;20459;-69
2021/09/18 04:16:24;;;;;;;29.80;27.70;;;11.60;92.60;;;;;;5054752;28;20884;-68
2021/09/18 04:18:51;;;;;;;29.50;27.50;;;11.60;93.00;;;;;;5054210;28;20475;-68
2021/09/18 04:21:19;;;;;;;28.47;26.57;;;11.60;93.10;;;;;;5050349;28;20996;-68
2021/09/18 04:23:46;;;;;;;29.63;27.30;;;11.60;93.00;;;;;;5050708;28;20555;-69
2021/09/18 04:26:12;;;;;;;27.80;25.90;;;11.60;92.90;;;;;;5060711;28;20460;-68
2021/09/18 04:28:40;;;;;;;28.70;26.40;;;11.50;92.80;;;;;;5049293;28;20455;-68
2021/09/18 04:31:07;;;;;;;29.10;27.20;;;11.50;92.90;;;;;;5049104;28;20470;-68
2021/09/18 04:33:35;;;;;;;30.40;28.23;;;11.50;92.90;;;;;;5050351;28;20482;-69
2021/09/18 04:36:02;;;;;;;29.80;27.70;;;11.50;93.00;;;;;;5053450;28;21023;-68
2021/09/18 04:38:29;;;;;;;29.87;27.47;;;11.50;93.10;;;;;;5051427;28;20465;-68
2021/09/18 04:40:56;;;;;;;29.73;27.50;;;11.50;93.10;;;;;;5053067;28;20570;-68
2021/09/18 04:43:23;;;;;;;31.07;28.70;;;11.50;93.10;;;;;;5055120;28;20459;-68
2021/09/18 04:45:51;;;;;;;29.03;27.03;;;11.50;92.80;;;;;;5062248;28;20451;-68
2021/09/18 04:48:18;;;;;;;27.80;25.70;;;11.50;92.50;;;;;;5049800;28;20970;-68
2021/09/18 04:50:46;;;;;;;28.80;26.90;;;11.50;92.30;;;;;;5048556;28;20927;-68
2021/09/18 04:53:13;;;;;;;29.90;27.70;;;11.40;92.50;;;;;;5048989;28;20534;-69
2021/09/18 04:55:40;;;;;;;30.10;27.87;;;11.30;92.60;;;;;;5049512;28;20457;-68
2021/09/18 04:58:07;;;;;;;30.23;28.23;;;11.30;92.80;;;;;;5048638;28;20459;-69
2021/09/18 05:00:34;;;;;;;29.93;27.80;;;11.30;92.90;;;;;;5054269;28;21093;-69
2021/09/18 05:03:01;;;;;;;29.97;27.87;;;11.30;93.00;;;;;;5048916;28;20736;-68
2021/09/18 05:05:28;;;;;;;29.60;27.53;;;11.30;93.00;;;;;;5051390;28;20454;-68
2021/09/18 05:07:56;;;;;;;30.43;28.23;;;11.30;92.80;;;;;;5065104;28;20454;-69
2021/09/18 05:10:23;;;;;;;28.70;26.77;;;11.30;93.00;;;;;;5049097;28;20474;-69
2021/09/18 05:12:50;;;;;;;28.37;26.03;;;11.30;93.00;;;;;;5048928;28;20455;-69
2021/09/18 05:15:17;;;;;;;27.47;25.73;;;11.30;92.90;;;;;;5057366;28;20466;-68
2021/09/18 05:17:44;;;;;;;27.57;25.77;;;11.30;92.80;;;;;;5050318;28;20538;-68
2021/09/18 05:20:12;;;;;;;28.33;26.43;;;11.40;92.90;;;;;;5056377;28;21044;-68
2021/09/18 05:22:39;;;;;;;27.97;25.77;;;11.30;92.60;;;;;;5062784;28;20460;-69
2021/09/18 05:25:08;;;;;;;28.37;26.50;;;11.40;92.40;;;;;;5048034;28;20624;-68
2021/09/18 05:27:35;;;;;;;30.10;28.00;;;11.40;92.60;;;;;;5048127;28;20463;-68
2021/09/18 05:30:02;;;;;;;30.37;28.17;;;11.40;92.40;;;;;;5066471;28;20477;-68
2021/09/18 05:32:29;;;;;;;29.53;27.63;;;11.40;92.50;;;;;;5047924;28;20462;-68
2021/09/18 05:34:56;;;;;;;29.87;27.67;;;11.50;92.40;;;;;;5048938;28;20458;-69
2021/09/18 05:37:23;;;;;;;28.63;26.73;;;11.50;92.30;;;;;;5049448;28;20463;-67
2021/09/18 05:39:50;;;;;;;29.90;27.80;;;11.60;92.10;;;;;;5048534;28;20483;-67
2021/09/18 05:42:18;;;;;;;29.10;27.20;;;11.60;91.90;;;;;;5055787;28;21001;-68
2021/09/18 05:44:45;;;;;;;29.03;27.10;;;11.60;91.70;;;;;;5053665;28;21121;-68
2021/09/18 05:47:12;;;;;;;29.77;27.67;;;11.60;91.50;;;;;;5051458;28;20994;-68
2021/09/18 05:49:39;;;;;;;30.00;27.90;;;11.60;91.50;;;;;;5048646;28;20507;-68
2021/09/18 05:52:06;;;;;;;30.07;27.83;;;11.70;91.20;;;;;;5048219;28;20462;-68
2021/09/18 05:54:33;;;;;;;28.80;26.80;;;11.80;91.20;;;;;;5051107;28;20458;-68
2021/09/18 05:57:00;;;;;;;28.90;26.90;;;11.90;90.90;;;;;;5059458;28;20453;-68
2021/09/18 05:59:28;;;;;;;28.60;26.80;;;11.90;90.80;;;;;;5051699;28;20566;-68
2021/09/18 06:01:55;;;;;;;29.40;27.30;;;11.90;90.80;;;;;;5048127;28;20698;-69
2021/09/18 06:04:22;;;;;;;29.03;27.03;;;11.90;90.70;;;;;;5048393;28;20459;-69
2021/09/18 06:06:49;;;;;;;31.33;29.03;;;12.00;90.60;;;;;;5050962;28;21143;-69
2021/09/18 06:09:16;;;;;;;33.17;30.83;;;12.10;90.40;;;;;;5052738;28;21063;-68
2021/09/18 06:11:43;;;;;;;30.47;28.47;;;12.20;90.10;;;;;;5055735;28;20557;-69
2021/09/18 06:14:10;;;;;;;30.93;28.70;;;12.20;90.20;;;;;;5054554;28;20459;-68
2021/09/18 06:16:38;;;;;;;31.03;28.77;;;12.30;90.30;;;;;;5055805;28;20450;-69
2021/09/18 06:19:05;;;;;;;28.77;26.97;;;12.30;90.30;;;;;;5051611;28;20478;-69
2021/09/18 06:21:32;;;;;;;30.10;28.10;;;12.40;90.30;;;;;;5059982;28;20459;-69
2021/09/18 06:23:59;;;;;;;31.57;29.47;;;12.50;90.30;;;;;;5057756;28;20821;-69
2021/09/18 06:26:26;;;;;;;30.20;28.07;;;12.60;89.90;;;;;;5064031;28;20461;-69
2021/09/18 06:28:56;;;;;;;32.20;30.10;;;12.70;89.80;;;;;;5049515;28;20450;-69
2021/09/18 06:31:23;;;;;;;30.30;28.30;;;12.80;89.40;;;;;;5059542;28;20493;-68
2021/09/18 06:33:51;;;;;;;33.53;31.27;;;12.90;89.20;;;;;;5059716;28;20457;-68
2021/09/18 06:36:18;;;;;;;33.97;31.50;;;13.00;88.80;;;;;;5060097;28;20545;-68
2021/09/18 06:38:45;;;;;;;31.43;29.23;;;13.10;88.70;;;;;;5053172;28;20454;-68
2021/09/18 06:41:12;;;;;;;30.17;28.13;;;13.10;88.80;;;;;;5057203;28;20454;-68
2021/09/18 06:43:39;;;;;;;32.30;30.10;;;13.20;88.70;;;;;;5065570;28;20474;-68
2021/09/18 06:46:06;;;;;;;32.80;30.70;;;13.20;88.50;;;;;;5060462;28;20537;-69
2021/09/18 06:48:33;;;;;;;32.33;30.03;;;13.20;88.60;;;;;;5052650;28;20608;-69
2021/09/18 06:51:01;;;;;;;30.37;28.27;;;13.30;88.60;;;;;;5057741;28;20470;-69
2021/09/18 06:53:28;;;;;;;31.60;29.60;;;13.40;88.50;;;;;;5055988;28;20909;-69
2021/09/18 06:55:55;;;;;;;30.20;28.30;;;13.50;87.80;;;;;;5052124;28;20840;-69
2021/09/18 06:58:22;;;;;;;32.80;30.30;;;13.60;87.50;;;;;;5052408;28;20451;-69
2021/09/18 07:00:49;;;;;;;32.50;30.20;;;13.60;87.40;;;;;;5061746;28;20484;-69
2021/09/18 07:03:16;;;;;;;32.90;30.60;;;13.80;87.20;;;;;;5050270;28;20463;-70
2021/09/18 07:05:43;;;;;;;31.83;29.60;;;13.80;87.00;;;;;;5050599;28;20465;-70
2021/09/18 07:08:11;;;;;;;34.60;32.23;;;13.90;86.70;;;;;;5057285;28;20459;-71
2021/09/18 07:10:38;;;;;;;32.10;29.80;;;14.00;86.70;;;;;;5055344;28;21351;-71
2021/09/18 07:13:05;;;;;;;33.90;31.50;;;14.10;86.40;;;;;;5051459;28;20841;-70
2021/09/18 07:15:32;;;;;;;34.90;32.27;;;14.20;86.10;;;;;;5055631;28;20457;-71
2021/09/18 07:17:59;;;;;;;33.13;30.73;;;14.20;85.90;;;;;;5051664;28;20498;-71
2021/09/18 07:20:26;;;;;;;32.27;30.07;;;14.40;85.70;;;;;;5052104;28;20514;-71
2021/09/18 07:22:52;;;;;;;33.63;31.00;;;14.50;85.30;;;;;;5056115;28;21019;-71
2021/09/18 07:25:22;;;;;;;32.27;29.93;;;14.70;84.90;;;;;;5053542;28;20447;-71
2021/09/18 07:27:49;;;;;;;33.07;30.80;;;14.70;84.80;;;;;;5053054;28;20950;-71
2021/09/18 07:30:16;;;;;;;34.30;31.97;;;14.80;84.70;;;;;;5053281;28;20608;-72
2021/09/18 07:32:43;;;;;;;32.57;30.47;;;14.90;84.30;;;;;;5061441;28;20465;-70
2021/09/18 07:35:10;;;;;;;32.67;30.47;;;14.90;84.20;;;;;;5051217;28;20456;-69
2021/09/18 07:37:38;;;;;;;34.70;32.40;;;15.10;84.00;;;;;;5051730;28;20455;-70
2021/09/18 07:40:06;;;;;;;35.00;32.60;;;15.20;83.80;;;;;;5055067;28;21016;-69
2021/09/18 07:42:34;;;;;;;34.77;31.97;;;15.30;83.60;;;;;;5065790;28;20470;-68
2021/09/18 07:45:01;;;;;;;33.23;30.87;;;15.40;83.60;;;;;;5061194;28;20447;-69
2021/09/18 07:47:28;;;;;;;31.90;29.57;;;15.50;83.30;;;;;;5058464;28;21011;-69
2021/09/18 07:49:55;;;;;;;32.43;29.93;;;15.60;82.90;;;;;;5057780;28;20465;-69
2021/09/18 07:52:23;;;;;;;32.47;30.27;;;15.70;82.60;;;;;;5058665;28;20457;-69
2021/09/18 07:54:50;;;;;;;33.03;30.73;;;15.80;82.30;;;;;;5049485;28;20898;-68
2021/09/18 07:57:17;;;;;;;32.57;30.57;;;15.90;82.00;;;;;;5064567;28;20501;-68
2021/09/18 07:59:45;;;;;;;33.40;31.23;;;16.00;81.80;;;;;;5057637;28;20484;-68
2021/09/18 08:02:12;;;;;;;32.97;30.53;;;16.10;81.40;;;;;;5061230;28;20472;-69
2021/09/18 08:04:39;;;;;;;33.20;30.90;;;16.20;81.40;;;;;;5051779;28;21136;-68
2021/09/18 08:07:06;;;;;;;33.97;31.77;;;16.20;81.10;;;;;;5048576;28;20464;-69
2021/09/18 08:09:33;;;;;;;35.10;32.70;;;16.30;80.90;;;;;;5061113;28;20603;-68
2021/09/18 08:12:00;;;;;;;33.27;30.67;;;16.40;80.50;;;;;;5058806;28;20474;-69
2021/09/18 08:14:27;;;;;;;33.00;30.90;;;16.50;80.20;;;;;;5051044;28;20523;-68
2021/09/18 08:16:56;;;;;;;34.07;31.87;;;16.60;79.50;;;;;;5049912;28;20455;-69
2021/09/18 08:19:24;;;;;;;34.57;32.10;;;16.60;79.40;;;;;;5058394;28;20527;-67
2021/09/18 08:21:53;;;;;;;32.30;30.27;;;16.70;79.30;;;;;;5047740;28;20458;-67
2021/09/18 08:24:21;;;;;;;33.77;31.50;;;16.80;79.10;;;;;;5053537;28;20454;-67
2021/09/18 08:26:48;;;;;;;34.20;32.00;;;16.90;78.80;;;;;;5052577;28;20521;-68
2021/09/18 08:29:15;;;;;;;35.50;32.87;;;17.00;78.00;;;;;;5049417;28;20482;-69
2021/09/18 08:31:42;;;;;;;33.50;31.40;;;17.10;77.50;;;;;;5049933;28;20462;-67
2021/09/18 08:34:10;;;;;;;34.63;32.43;;;17.20;77.20;;;;;;5057845;28;20457;-67
2021/09/18 08:36:37;;;;;;;34.57;32.20;;;17.20;77.00;;;;;;5057743;28;20469;-67
2021/09/18 08:39:04;;;;;;;33.60;31.47;;;17.30;76.80;;;;;;5055721;28;20477;-67
2021/09/18 08:41:31;;;;;;;34.70;32.10;;;17.30;76.60;;;;;;5056339;28;20885;-67
2021/09/18 08:43:59;;;;;;;33.33;31.20;;;17.40;76.60;;;;;;5059160;28;20450;-68
2021/09/18 08:46:26;;;;;;;33.40;31.20;;;17.50;76.40;;;;;;5052537;28;20824;-69
2021/09/18 08:48:55;;;;;;;34.33;31.83;;;17.60;75.90;;;;;;5053209;28;20539;-67
2021/09/18 08:51:23;;;;;;;33.50;31.50;;;17.70;75.50;;;;;;5057828;28;20459;-67
2021/09/18 08:53:50;;;;;;;33.30;31.30;;;17.70;75.80;;;;;;5057846;28;20545;-67
2021/09/18 08:56:20;;;;;;;32.70;30.70;;;17.90;75.50;;;;;;5060529;28;20464;-67
2021/09/18 08:58:47;;;;;;;31.90;29.90;;;17.90;75.30;;;;;;5052924;28;20487;-67
2021/09/18 09:01:14;;;;;;;32.20;29.93;;;17.90;75.50;;;;;;5051012;28;20905;-67
2021/09/18 09:03:42;;;;;;;34.03;31.70;;;18.00;75.30;;;;;;5048152;28;20542;-66
2021/09/18 09:06:11;;;;;;;32.10;30.10;;;18.10;75.00;;;;;;5049333;28;20450;-66
2021/09/18 09:08:42;;;;;;;31.13;29.27;;;18.10;74.80;;;;;;5050438;28;20473;-67
2021/09/18 09:11:19;;;;;;;31.90;29.77;;;18.20;74.50;;;;;;5065883;28;20744;-66
2021/09/18 09:13:57;;;;;;;31.70;29.80;;;18.30;74.40;;;;;;5059877;28;20458;-66
2021/09/18 09:16:24;;;;;;;31.20;29.40;;;18.40;74.10;;;;;;5062571;28;20967;-67
2021/09/18 09:18:51;;;;;;;31.20;29.40;;;18.40;74.00;;;;;;5059460;28;20531;-67
2021/09/18 09:21:22;;;;;;;31.13;29.33;;;18.50;74.30;;;;;;5069855;28;20482;-67
2021/09/18 09:27:03;;;;;;;32.17;29.90;;;18.50;74.00;;;;;;5096889;27;20530;-68
2021/09/18 09:29:44;;;;;;;31.40;29.50;;;18.70;73.70;;;;;;5081771;28;20467;-68
2021/09/18 09:32:27;;;;;;;30.80;28.70;;;19.00;72.00;;;;;;5087765;28;20532;-67
2021/09/18 09:34:55;;;;;;;31.10;29.13;;;19.10;71.20;;;;;;5083823;28;20681;-67
2021/09/18 09:37:22;;;;;;;29.87;28.07;;;19.10;70.70;;;;;;5087074;28;20543;-68
2021/09/18 09:39:52;;;;;;;30.33;28.63;;;19.00;70.60;;;;;;5085401;28;20518;-68
2021/09/18 09:42:27;;;;;;;29.83;28.00;;;19.10;70.90;;;;;;5081128;28;20483;-67
2021/09/18 09:44:55;;;;;;;30.77;28.67;;;19.10;70.10;;;;;;5074260;28;20480;-67
2021/09/18 09:47:25;;;;;;;30.70;29.00;;;19.20;69.80;;;;;;5085294;28;20460;-68
2021/09/18 09:49:57;;;;;;;30.90;29.10;;;19.30;69.20;;;;;;5078698;28;20909;-67
2021/09/18 09:52:29;;;;;;;30.20;28.17;;;19.40;68.80;;;;;;5091078;28;20453;-67
2021/09/18 09:54:59;;;;;;;29.30;27.60;;;19.50;67.90;;;;;;5085438;28;20450;-67
2021/09/18 09:57:28;;;;;;;27.33;25.83;;;19.40;67.10;;;;;;5073174;28;20457;-68
2021/09/18 09:59:59;;;;;;;27.57;26.07;;;19.40;66.60;;;;;;5085111;28;20476;-67
2021/09/18 10:02:27;;;;;;;27.93;26.47;;;19.50;65.60;;;;;;5086210;28;20457;-68
2021/09/18 10:04:54;;;;;;;26.67;25.37;;;19.70;64.80;;;;;;5091242;28;20559;-67
2021/09/18 10:07:21;;;;;;;25.77;24.47;;;19.80;60.70;;;;;;5083164;28;20975;-68
2021/09/18 10:09:48;;;;;;;26.60;25.20;;;19.80;58.80;;;;;;5075390;28;20480;-67
2021/09/18 10:12:16;;;;;;;25.27;23.97;;;19.80;59.30;;;;;;5079244;28;20505;-68
2021/09/18 10:14:48;;;;;;;25.40;24.10;;;19.90;58.50;;;;;;5085571;28;20453;-68
2021/09/18 10:17:17;;;;;;;25.13;23.83;;;20.00;58.60;;;;;;5086844;28;20453;-68
2021/09/18 10:20:04;;;;;;;25.20;23.83;;;20.00;58.10;;;;;;5084097;28;20477;-68
2021/09/18 10:25:18;;;;;;;26.50;25.20;;;20.10;59.50;;;;;;5084496;28;20599;-67
2021/09/18 10:28:04;;;;;;;25.97;24.57;;;20.20;59.50;;;;;;5084288;28;20487;-67
2021/09/18 10:30:34;;;;;;;26.93;25.53;;;20.30;59.50;;;;;;5088373;28;20499;-68
2021/09/18 10:33:01;;;;;;;25.00;23.70;;;20.30;59.80;;;;;;5100150;28;20549;-67
2021/09/18 10:35:30;;;;;;;26.27;24.90;;;20.30;56.90;;;;;;5081686;28;20492;-68
2021/09/18 10:37:58;;;;;;;25.60;24.30;;;20.40;55.90;;;;;;5070663;28;20532;-67
2021/09/18 10:40:25;;;;;;;25.80;24.40;;;20.40;56.90;;;;;;5066332;28;20564;-67
2021/09/18 10:42:52;;;;;;;25.63;24.33;;;20.50;57.20;;;;;;5069905;28;20541;-67
2021/09/18 10:45:38;;;;;;;26.77;25.30;;;20.70;56.30;;;;;;5064194;28;20477;-67
2021/09/18 10:48:07;;;;;;;26.17;24.77;;;20.70;56.40;;;;;;5068448;28;20464;-69
2021/09/18 10:50:39;;;;;;;27.13;25.53;;;20.90;56.60;;;;;;5069726;28;20459;-71
2021/09/18 10:53:09;;;;;;;26.27;24.97;;;20.90;56.50;;;;;;5068665;28;20899;-68
2021/09/18 10:55:54;;;;;;;25.90;24.60;;;21.00;56.00;;;;;;5060713;28;20450;-68
2021/09/18 10:58:21;;;;;;;27.10;25.70;;;21.10;55.80;;;;;;5069479;28;20473;-69
2021/09/18 11:00:53;;;;;;;26.50;25.03;;;21.10;56.30;;;;;;5068519;28;20467;-68
2021/09/18 11:03:41;;;;;;;26.80;25.30;;;21.10;56.00;;;;;;5069929;28;20462;-69
2021/09/18 11:06:08;;;;;;;25.87;24.47;;;21.10;54.70;;;;;;5065206;28;20486;-70
2021/09/18 11:08:39;;;;;;;26.43;24.90;;;21.20;54.60;;;;;;5062852;28;20453;-70
2021/09/18 11:11:12;;;;;;;26.40;25.00;;;21.30;54.90;;;;;;5066369;28;20550;-70
2021/09/18 11:13:44;;;;;;;27.20;25.80;;;21.30;55.20;;;;;;5060141;28;20466;-70
2021/09/18 11:16:23;;;;;;;26.80;25.37;;;21.30;55.40;;;;;;5063180;28;21166;-69
2021/09/18 11:18:57;;;;;;;25.60;24.30;;;21.40;55.70;;;;;;5064586;28;20464;-69
2021/09/18 11:21:26;;;;;;;25.80;24.40;;;21.50;56.20;;;;;;5069544;28;20891;-69
2021/09/18 11:23:55;;;;;;;28.03;26.53;;;21.50;56.50;;;;;;5068019;28;20528;-72
2021/09/18 11:26:46;;;;;;;28.37;26.60;;;21.50;57.70;;;;;;5070637;28;20462;-71
2021/09/18 11:29:33;;;;;;;29.30;27.70;;;21.60;58.80;;;;;;5066577;28;20552;-70
2021/09/18 11:32:21;;;;;;;28.97;27.37;;;21.70;58.40;;;;;;5066556;28;20446;-71
2021/09/18 11:34:52;;;;;;;29.00;27.40;;;21.80;57.90;;;;;;5063873;28;20454;-71
2021/09/18 11:37:28;;;;;;;28.47;26.83;;;21.60;59.00;;;;;;5060167;28;20468;-70
2021/09/18 11:39:57;;;;;;;28.80;27.10;;;21.60;58.60;;;;;;5067564;28;20556;-70
2021/09/18 11:42:28;;;;;;;29.87;28.17;;;21.60;58.10;;;;;;5081621;28;20460;-73
2021/09/18 11:45:00;;;;;;;28.47;26.93;;;21.60;59.00;;;;;;5061879;28;20458;-72
2021/09/18 11:47:30;;;;;;;31.33;29.63;;;21.60;58.60;;;;;;5068511;28;20442;-71
2021/09/18 11:49:59;;;;;;;29.83;28.03;;;21.70;58.20;;;;;;5068759;28;20469;-71
2021/09/18 13:10:11;;;;;;;29.47;27.87;;;21.40;58.80;;;;;;5073491;27;20604;-77
2021/09/18 13:12:39;;;;;;;29.10;27.20;;;21.40;59.10;;;;;;5059034;28;20481;-72
2021/09/18 13:15:12;;;;;;;28.40;26.83;;;21.70;58.70;;;;;;5055313;28;20451;-75
2021/09/18 13:17:38;;;;;;;31.03;29.23;;;21.90;57.30;;;;;;5061709;28;20458;-75
2021/09/18 13:20:07;;;;;;;30.40;28.40;;;22.10;57.50;;;;;;5067140;28;20824;-74
2021/09/18 13:22:37;;;;;;;29.10;27.23;;;22.30;57.10;;;;;;5054681;28;20461;-74
2021/09/18 13:25:06;;;;;;;29.40;27.70;;;22.10;57.70;;;;;;5071252;28;20508;-73
2021/09/18 13:27:35;;;;;;;28.67;27.07;;;22.10;57.40;;;;;;5075019;28;20455;-74
2021/09/18 13:30:02;;;;;;;28.03;26.33;;;21.90;57.20;;;;;;5054457;28;20871;-73
2021/09/18 13:32:29;;;;;;;29.90;27.90;;;22.00;57.50;;;;;;5053686;28;20451;-74
2021/09/18 13:34:56;;;;;;;28.30;26.80;;;22.10;57.60;;;;;;5061584;28;20470;-73
2021/09/18 13:37:24;;;;;;;30.00;28.30;;;22.10;56.80;;;;;;5065612;28;20472;-73
2021/09/18 13:39:51;;;;;;;28.90;27.30;;;22.20;56.80;;;;;;5049612;28;20474;-74
2021/09/18 13:42:20;;;;;;;28.70;26.90;;;22.40;56.50;;;;;;5053602;28;20454;-74
2021/09/18 13:44:49;;;;;;;27.67;26.17;;;22.50;55.40;;;;;;5060415;28;20512;-74
2021/09/18 13:47:16;;;;;;;28.43;26.93;;;22.70;55.50;;;;;;5063259;28;20530;-74
2021/09/18 13:49:44;;;;;;;28.53;26.93;;;23.00;55.20;;;;;;5057680;28;20483;-73
2021/09/18 13:52:11;;;;;;;29.13;27.43;;;23.30;54.60;;;;;;5062143;28;20494;-75
2021/09/18 13:54:38;;;;;;;29.27;27.50;;;23.40;54.20;;;;;;5055239;28;22470;-73
2021/09/18 13:57:05;;;;;;;28.93;27.23;;;23.60;54.30;;;;;;5057191;28;20470;-72